createdAt,value
2018-12-21T00:00:44.723Z,8.10
2018-12-21T00:03:12.255Z,7.10
2018-12-21T00:05:39.803Z,8.78
2018-12-21T00:08:07.319Z,6.60
2018-12-21T00:10:34.844Z,6.30
2018-12-21T00:13:02.375Z,5.53
2018-12-21T00:15:29.910Z,6.50
2018-12-21T00:17:57.447Z,5.83
2018-12-21T00:20:25.093Z,6.72
2018-12-21T00:22:52.725Z,6.87
2018-12-21T00:25:20.343Z,6.20
2018-12-21T00:27:47.854Z,5.60
2018-12-21T00:30:17.455Z,5.70
2018-12-21T00:32:50.622Z,5.33
2018-12-21T00:35:23.858Z,5.90
2018-12-21T00:37:57.201Z,5.87
2018-12-21T00:40:30.424Z,6.10
2018-12-21T00:43:00.742Z,5.70
2018-12-21T00:45:30.267Z,5.83
2018-12-21T00:47:57.787Z,6.07
2018-12-21T00:50:25.302Z,5.30
2018-12-21T00:52:52.902Z,5.03
2018-12-21T00:55:20.414Z,5.17
2018-12-21T00:57:47.969Z,5.03
2018-12-21T01:00:19.448Z,5.20
2018-12-21T01:02:46.979Z,5.53
2018-12-21T01:05:14.606Z,5.93
2018-12-21T01:07:42.123Z,5.67
2018-12-21T01:10:09.774Z,4.80
2018-12-21T01:12:37.370Z,4.80
2018-12-21T01:15:05.675Z,5.50
2018-12-21T01:17:33.705Z,4.73
2018-12-21T01:20:01.305Z,4.73
2018-12-21T01:22:28.870Z,4.77
2018-12-21T01:24:56.403Z,5.30
2018-12-21T01:27:23.923Z,5.23
2018-12-21T01:29:51.478Z,4.57
2018-12-21T01:32:18.991Z,4.57
2018-12-21T01:34:46.535Z,4.87
2018-12-21T01:37:14.076Z,4.83
2018-12-21T01:39:41.619Z,4.40
2018-12-21T01:42:09.147Z,4.27
2018-12-21T01:44:36.662Z,3.43
2018-12-21T01:47:04.210Z,3.87
2018-12-21T01:49:31.747Z,3.50
2018-12-21T01:51:59.287Z,4.50
2018-12-21T01:54:26.819Z,4.10
2018-12-21T01:56:54.331Z,3.97
2018-12-21T01:59:21.877Z,3.53
2018-12-21T02:01:49.409Z,3.53
2018-12-21T02:04:16.962Z,2.97
2018-12-21T02:06:44.502Z,3.20
2018-12-21T02:09:12.047Z,3.33
2018-12-21T02:11:39.590Z,3.50
2018-12-21T02:14:07.112Z,3.83
2018-12-21T02:16:34.648Z,2.70
2018-12-21T02:19:02.186Z,3.20
2018-12-21T02:21:29.731Z,2.90
2018-12-21T02:23:57.265Z,3.23
2018-12-21T02:26:24.798Z,2.77
2018-12-21T02:28:52.332Z,2.90
2018-12-21T02:31:19.868Z,2.50
2018-12-21T02:33:47.409Z,2.87
2018-12-21T02:36:14.950Z,2.80
2018-12-21T02:38:42.496Z,2.60
2018-12-21T02:41:09.983Z,2.70
2018-12-21T02:43:37.501Z,2.50
2018-12-21T02:46:05.121Z,2.47
2018-12-21T02:48:32.635Z,2.60
2018-12-21T02:51:00.148Z,2.07
2018-12-21T02:53:27.672Z,2.33
2018-12-21T02:55:55.183Z,1.93
2018-12-21T02:58:22.695Z,2.53
2018-12-21T03:00:50.312Z,2.10
2018-12-21T03:03:17.864Z,2.63
2018-12-21T03:05:45.390Z,2.63
2018-12-21T03:08:12.879Z,2.27
2018-12-21T03:10:40.409Z,2.03
2018-12-21T03:13:07.929Z,1.90
2018-12-21T03:15:35.465Z,1.83
2018-12-21T03:18:02.969Z,1.93
2018-12-21T03:20:30.504Z,2.07
2018-12-21T03:22:57.996Z,2.13
2018-12-21T03:25:25.521Z,1.80
2018-12-21T03:27:53.013Z,2.10
2018-12-21T03:30:20.539Z,1.70
2018-12-21T03:32:48.034Z,1.93
2018-12-21T03:35:15.536Z,2.10
2018-12-21T03:37:43.056Z,1.90
2018-12-21T03:40:10.718Z,1.90
2018-12-21T03:42:38.212Z,1.80
2018-12-21T03:45:05.877Z,1.63
2018-12-21T03:47:33.488Z,1.77
2018-12-21T03:50:01.025Z,2.13
2018-12-21T03:52:28.530Z,2.30
2018-12-21T03:54:56.034Z,2.13
2018-12-21T03:57:23.555Z,2.12
2018-12-21T03:59:51.090Z,2.30
2018-12-21T04:02:20.847Z,1.90
2018-12-21T04:04:48.138Z,1.80
2018-12-21T04:07:15.657Z,2.00
2018-12-21T04:09:43.161Z,2.03
2018-12-21T04:12:10.677Z,2.20
2018-12-21T04:14:38.186Z,2.30
2018-12-21T04:17:05.699Z,2.20
2018-12-21T04:19:33.236Z,1.70
2018-12-21T04:22:00.736Z,2.20
2018-12-21T04:24:28.256Z,2.43
2018-12-21T04:26:55.802Z,3.10
2018-12-21T04:29:23.302Z,3.80
2018-12-21T04:31:50.800Z,3.53
2018-12-21T04:34:18.327Z,2.83
2018-12-21T04:36:45.849Z,3.97
2018-12-21T04:39:13.353Z,3.70
2018-12-21T04:41:40.850Z,2.70
2018-12-21T04:44:08.378Z,2.20
2018-12-21T04:46:35.891Z,2.27
2018-12-21T04:49:03.396Z,2.30
2018-12-21T04:51:30.930Z,2.17
2018-12-21T04:53:58.436Z,2.70
2018-12-21T04:56:25.947Z,2.27
2018-12-21T04:58:53.451Z,2.10
2018-12-21T05:01:20.939Z,2.17
2018-12-21T05:03:48.478Z,2.77
2018-12-21T05:06:16.106Z,2.83
2018-12-21T05:08:43.707Z,2.60
2018-12-21T05:11:11.231Z,2.33
2018-12-21T05:13:38.744Z,2.90
2018-12-21T05:16:06.278Z,2.60
2018-12-21T05:18:33.768Z,2.73
2018-12-21T05:21:01.287Z,2.93
2018-12-21T05:23:28.796Z,3.03
2018-12-21T05:25:56.311Z,3.10
2018-12-21T05:28:23.844Z,2.77
2018-12-21T05:30:51.380Z,3.00
2018-12-21T05:33:18.910Z,3.30
2018-12-21T05:35:46.444Z,3.30
2018-12-21T05:38:13.953Z,4.07
2018-12-21T05:40:41.443Z,4.73
2018-12-21T05:43:08.944Z,4.40
2018-12-21T05:45:36.470Z,6.33
2018-12-21T05:48:03.964Z,5.80
2018-12-21T05:50:31.467Z,5.23
2018-12-21T05:53:00.811Z,7.77
2018-12-21T05:55:28.540Z,7.90
2018-12-21T05:57:56.055Z,9.10
2018-12-21T06:00:23.548Z,8.23
2018-12-21T06:02:51.075Z,9.27
2018-12-21T06:05:18.580Z,8.60
2018-12-21T06:07:46.085Z,10.43
2018-12-21T06:10:13.619Z,9.80
2018-12-21T06:12:41.140Z,9.57
2018-12-21T06:15:08.826Z,9.97
2018-12-21T06:17:36.324Z,9.50
2018-12-21T06:20:04.801Z,11.73
2018-12-21T06:22:32.332Z,11.40
2018-12-21T06:24:59.844Z,10.57
2018-12-21T06:27:27.345Z,8.33
2018-12-21T06:29:54.856Z,10.87
2018-12-21T06:32:22.377Z,9.50
2018-12-21T06:34:49.916Z,10.10
2018-12-21T06:37:17.433Z,11.37
2018-12-21T06:39:44.969Z,11.87
2018-12-21T06:42:12.468Z,10.03
2018-12-21T06:44:39.999Z,12.07
2018-12-21T06:47:07.501Z,11.20
2018-12-21T06:49:35.035Z,10.63
2018-12-21T06:52:02.555Z,10.40
2018-12-21T06:54:30.072Z,10.20
2018-12-21T06:56:57.597Z,11.30
2018-12-21T06:59:25.105Z,11.33
2018-12-21T07:01:52.628Z,11.30
2018-12-21T07:04:20.153Z,10.57
2018-12-21T07:06:47.747Z,10.17
2018-12-21T07:09:15.243Z,11.23
2018-12-21T07:14:24.876Z,11.87
2018-12-21T07:16:52.387Z,10.27
2018-12-21T07:19:19.910Z,10.27
2018-12-21T07:21:47.496Z,10.90
2018-12-21T07:24:15.019Z,11.57
2018-12-21T07:26:42.516Z,10.47
2018-12-21T07:29:10.020Z,9.70
2018-12-21T07:31:37.531Z,10.73
2018-12-21T07:34:05.047Z,11.20
2018-12-21T07:36:32.574Z,10.60
2018-12-21T07:39:00.077Z,10.97
2018-12-21T07:41:27.617Z,10.73
2018-12-21T07:43:55.370Z,11.07
2018-12-21T07:46:22.891Z,10.80
2018-12-21T07:48:50.428Z,10.47
2018-12-21T07:51:17.951Z,11.63
2018-12-21T07:53:45.483Z,11.27
2018-12-21T07:56:13.005Z,11.23
2018-12-21T07:58:40.632Z,10.27
2018-12-21T08:01:08.179Z,10.80
2018-12-21T08:03:35.672Z,9.97
2018-12-21T08:06:03.224Z,9.93
2018-12-21T08:08:30.748Z,9.60
2018-12-21T08:10:58.243Z,10.00
2018-12-21T08:13:25.751Z,10.25
2018-12-21T08:15:53.256Z,9.30
2018-12-21T08:18:20.757Z,9.53
2018-12-21T08:20:48.292Z,9.40
2018-12-21T08:23:15.783Z,9.37
2018-12-21T08:25:43.314Z,8.70
2018-12-21T08:28:10.835Z,10.53
2018-12-21T08:30:38.367Z,8.90
2018-12-21T08:33:05.881Z,8.70
2018-12-21T08:35:33.395Z,8.67
2018-12-21T08:38:00.899Z,9.63
2018-12-21T08:40:28.430Z,10.13
2018-12-21T08:42:56.031Z,9.77
2018-12-21T08:45:23.567Z,9.40
2018-12-21T08:47:51.078Z,9.03
2018-12-21T08:50:18.608Z,7.83
2018-12-21T08:52:46.137Z,9.17
2018-12-21T08:55:13.685Z,8.70
2018-12-21T08:57:41.201Z,8.20
2018-12-21T09:00:10.352Z,9.40
2018-12-21T09:02:37.884Z,9.27
2018-12-21T09:05:06.045Z,8.73
2018-12-21T09:07:33.575Z,8.03
2018-12-21T09:10:01.071Z,9.50
2018-12-21T09:12:28.739Z,9.37
2018-12-21T09:14:56.236Z,8.80
2018-12-21T09:17:23.745Z,9.00
2018-12-21T09:19:51.270Z,9.07
2018-12-21T09:22:18.820Z,10.13
2018-12-21T09:24:46.335Z,9.33
2018-12-21T09:27:13.872Z,7.93
2018-12-21T09:29:41.480Z,7.70
2018-12-21T09:32:08.993Z,8.47
2018-12-21T09:34:36.488Z,9.57
2018-12-21T09:37:04.100Z,8.67
2018-12-21T09:39:31.620Z,9.17
2018-12-21T09:41:59.126Z,8.47
2018-12-21T09:44:26.663Z,8.13
2018-12-21T09:46:54.179Z,8.73
2018-12-21T09:49:21.688Z,8.63
2018-12-21T09:51:49.193Z,8.37
2018-12-21T09:54:16.699Z,8.40
2018-12-21T09:56:44.215Z,8.73
2018-12-21T09:59:11.725Z,9.00
2018-12-21T10:01:39.239Z,9.33
2018-12-21T10:04:06.779Z,8.77
2018-12-21T10:06:34.517Z,9.03
2018-12-21T10:09:02.036Z,7.97
2018-12-21T10:11:29.537Z,9.37
2018-12-21T10:13:57.043Z,8.33
2018-12-21T10:16:24.556Z,8.03
2018-12-21T10:18:52.068Z,9.27
2018-12-21T10:21:19.581Z,9.90
2018-12-21T10:23:47.111Z,9.63
2018-12-21T10:26:14.608Z,10.17
2018-12-21T10:28:42.125Z,10.00
2018-12-21T10:31:09.649Z,9.63
2018-12-21T10:33:37.162Z,9.70
2018-12-21T10:36:04.680Z,9.70
2018-12-21T10:38:32.193Z,8.73
2018-12-21T10:40:59.788Z,8.50
2018-12-21T10:43:27.300Z,7.97
2018-12-21T10:45:54.815Z,7.93
2018-12-21T10:48:22.329Z,7.77
2018-12-21T10:50:49.863Z,9.17
2018-12-21T10:53:17.387Z,10.33
2018-12-21T10:55:44.911Z,9.83
2018-12-21T10:58:12.404Z,8.80
2018-12-21T11:00:39.933Z,7.50
2018-12-21T11:03:07.433Z,8.30
2018-12-21T11:05:34.939Z,8.20
2018-12-21T11:08:02.447Z,8.50
2018-12-21T11:10:30.041Z,7.57
2018-12-21T11:12:57.981Z,6.77
2018-12-21T11:15:25.488Z,7.43
2018-12-21T11:17:53.008Z,7.10
2018-12-21T11:20:20.540Z,8.13
2018-12-21T11:22:48.036Z,8.20
2018-12-21T11:25:15.549Z,7.70
2018-12-21T11:27:43.141Z,8.30
2018-12-21T11:30:10.664Z,7.67
2018-12-21T11:32:38.201Z,7.17
2018-12-21T11:35:05.867Z,7.10
2018-12-21T11:37:33.376Z,8.83
2018-12-21T11:40:00.879Z,7.47
2018-12-21T11:42:28.388Z,8.00
2018-12-21T11:44:55.888Z,7.90
2018-12-21T11:47:23.399Z,7.77
2018-12-21T11:49:50.901Z,8.50
2018-12-21T11:52:18.435Z,8.20
2018-12-21T11:54:45.924Z,8.67
2018-12-21T11:57:13.461Z,9.33
2018-12-21T11:59:44.909Z,9.40
2018-12-21T12:02:10.520Z,7.57
2018-12-21T12:04:38.044Z,8.30
2018-12-21T12:07:05.579Z,8.83
2018-12-21T12:09:33.082Z,9.20
2018-12-21T12:12:00.598Z,9.23
2018-12-21T12:14:28.119Z,8.37
2018-12-21T12:16:55.655Z,10.23
2018-12-21T12:19:23.150Z,9.20
2018-12-21T12:21:50.680Z,9.50
2018-12-21T12:24:18.203Z,12.63
2018-12-21T12:26:45.724Z,20.07
2018-12-21T12:29:13.236Z,16.80
2018-12-21T12:31:42.920Z,10.23
2018-12-21T12:34:10.281Z,14.87
2018-12-21T12:36:37.791Z,81.33
2018-12-21T12:39:06.064Z,22.50
2018-12-21T12:41:33.688Z,12.07
2018-12-21T12:44:01.208Z,9.47
2018-12-21T12:46:28.724Z,10.07
2018-12-21T12:48:56.251Z,10.60
2018-12-21T12:51:23.766Z,9.77
2018-12-21T12:53:51.287Z,11.27
2018-12-21T12:56:18.860Z,10.93
2018-12-21T12:58:46.386Z,10.53
2018-12-21T13:01:13.972Z,9.53
2018-12-21T13:03:41.560Z,10.70
2018-12-21T13:06:09.062Z,9.07
2018-12-21T13:08:38.870Z,13.80
2018-12-21T13:11:06.128Z,10.20
2018-12-21T13:13:33.657Z,9.43
2018-12-21T13:16:01.157Z,9.13
2018-12-21T13:18:28.670Z,13.47
2018-12-21T13:20:56.193Z,14.37
2018-12-21T13:23:23.739Z,11.60
2018-12-21T13:25:51.237Z,8.93
2018-12-21T13:28:18.749Z,10.50
2018-12-21T13:30:46.249Z,9.77
2018-12-21T13:33:13.791Z,10.07
2018-12-21T13:35:41.288Z,10.77
2018-12-21T13:38:08.780Z,9.27
2018-12-21T13:40:36.307Z,9.80
2018-12-21T13:43:03.844Z,10.30
2018-12-21T13:45:31.358Z,15.47
2018-12-21T13:47:58.868Z,8.23
2018-12-21T13:50:26.373Z,8.23
2018-12-21T13:52:53.920Z,13.53
2018-12-21T13:55:21.447Z,13.60
2018-12-21T13:57:48.949Z,10.20
2018-12-21T14:00:16.465Z,11.77
2018-12-21T14:02:43.988Z,9.03
2018-12-21T14:05:11.567Z,7.97
2018-12-21T14:07:39.073Z,11.13
2018-12-21T14:10:09.541Z,7.30
2018-12-21T14:12:37.062Z,7.60
2018-12-21T14:15:05.129Z,7.97
2018-12-21T14:17:32.641Z,10.03
2018-12-21T14:20:00.172Z,16.87
2018-12-21T14:22:27.663Z,7.30
2018-12-21T14:24:55.163Z,8.80
2018-12-21T14:27:22.656Z,7.70
2018-12-21T14:29:50.173Z,7.90
2018-12-21T14:32:17.672Z,15.47
2018-12-21T14:34:45.212Z,15.60
2018-12-21T14:37:12.717Z,11.30
2018-12-21T14:39:40.252Z,8.57
2018-12-21T14:42:07.768Z,9.47
2018-12-21T14:44:35.295Z,7.23
2018-12-21T14:47:02.807Z,6.10
2018-12-21T14:49:30.342Z,7.07
2018-12-21T14:51:57.836Z,6.20
2018-12-21T14:54:25.426Z,5.40
2018-12-21T14:56:52.960Z,6.10
2018-12-21T14:59:20.491Z,6.37
2018-12-21T15:01:48.013Z,5.07
2018-12-21T15:04:15.548Z,5.20
2018-12-21T15:06:43.065Z,4.83
2018-12-21T15:09:12.064Z,4.63
2018-12-21T15:11:39.560Z,4.77
2018-12-21T15:14:07.095Z,4.73
2018-12-21T15:16:34.591Z,5.20
2018-12-21T15:19:02.112Z,4.53
2018-12-21T15:21:29.620Z,5.07
2018-12-21T15:23:57.137Z,4.40
2018-12-21T15:26:24.633Z,4.47
2018-12-21T15:28:52.133Z,4.23
2018-12-21T15:31:19.631Z,3.50
2018-12-21T15:33:47.165Z,4.65
2018-12-21T15:36:14.660Z,3.80
2018-12-21T15:38:42.167Z,4.03
2018-12-21T15:41:09.656Z,3.80
2018-12-21T15:43:37.198Z,3.93
2018-12-21T15:46:04.718Z,3.70
2018-12-21T15:48:32.212Z,3.70
2018-12-21T15:50:59.735Z,4.33
2018-12-21T15:53:27.235Z,3.77
2018-12-21T15:55:55.144Z,3.97
2018-12-21T15:58:22.779Z,4.20
2018-12-21T16:00:50.302Z,3.97
2018-12-21T16:03:17.867Z,4.10
2018-12-21T16:05:45.391Z,3.70
2018-12-21T16:08:12.890Z,3.90
2018-12-21T16:10:40.389Z,3.63
2018-12-21T16:13:07.918Z,4.30
2018-12-21T16:15:35.412Z,4.72
2018-12-21T16:18:02.937Z,3.70
2018-12-21T16:20:30.463Z,3.70
2018-12-21T16:22:57.975Z,3.77
2018-12-21T16:25:25.474Z,4.10
2018-12-21T16:27:52.981Z,4.50
2018-12-21T16:30:20.495Z,4.03
2018-12-21T16:32:48.028Z,4.43
2018-12-21T16:35:15.521Z,4.10
2018-12-21T16:37:43.163Z,3.87
2018-12-21T16:40:10.755Z,4.40
2018-12-21T16:42:38.284Z,4.00
2018-12-21T16:45:08.151Z,4.20
2018-12-21T16:47:35.684Z,4.77
2018-12-21T16:50:06.050Z,3.83
2018-12-21T16:52:33.578Z,4.13
2018-12-21T16:55:01.087Z,4.40
2018-12-21T16:57:28.627Z,4.87
2018-12-21T16:59:56.116Z,4.60
2018-12-21T17:02:23.608Z,4.37
2018-12-21T17:04:51.120Z,4.70
2018-12-21T17:07:18.607Z,3.93
2018-12-21T17:09:46.220Z,3.83
2018-12-21T17:12:13.727Z,4.60
2018-12-21T17:14:41.236Z,4.20
2018-12-21T17:17:08.724Z,4.27
2018-12-21T17:19:36.223Z,4.13
2018-12-21T17:22:03.735Z,4.63
2018-12-21T17:24:31.254Z,4.73
2018-12-21T17:26:58.836Z,4.80
2018-12-21T17:29:26.353Z,4.67
2018-12-21T17:31:53.879Z,3.83
2018-12-21T17:34:21.395Z,3.87
2018-12-21T17:36:48.920Z,3.97
2018-12-21T17:39:16.412Z,3.50
2018-12-21T17:41:43.941Z,3.43
2018-12-21T17:44:13.209Z,3.93
2018-12-21T17:46:40.896Z,3.90
2018-12-21T17:49:08.416Z,3.87
2018-12-21T17:51:35.924Z,5.42
2018-12-21T17:54:04.830Z,4.80
2018-12-21T17:56:32.576Z,4.83
2018-12-21T17:59:00.096Z,10.67
2018-12-21T18:01:27.883Z,11.23
2018-12-21T18:03:55.482Z,9.90
2018-12-21T18:06:22.981Z,7.80
2018-12-21T18:08:50.481Z,5.40
2018-12-21T18:11:18.130Z,3.47
2018-12-21T18:13:45.643Z,3.10
2018-12-21T18:16:13.171Z,3.33
2018-12-21T18:18:40.673Z,3.20
2018-12-21T18:21:08.180Z,3.30
2018-12-21T18:23:35.744Z,3.20
2018-12-21T18:26:03.275Z,3.10
2018-12-21T18:28:30.776Z,2.93
2018-12-21T18:31:01.351Z,2.67
2018-12-21T18:33:28.847Z,2.60
2018-12-21T18:35:56.352Z,2.40
2018-12-21T18:38:23.849Z,2.60
2018-12-21T18:40:51.349Z,2.30
2018-12-21T18:43:18.877Z,2.47
2018-12-21T18:45:46.381Z,2.23
2018-12-21T18:48:13.907Z,2.70
2018-12-21T18:50:41.412Z,2.43
2018-12-21T18:53:08.928Z,2.50
2018-12-21T18:55:36.518Z,2.20
2018-12-21T18:58:04.016Z,2.50
2018-12-21T19:00:31.538Z,2.70
2018-12-21T19:02:59.772Z,2.67
2018-12-21T19:05:27.328Z,3.60
2018-12-21T19:07:54.928Z,3.07
2018-12-21T19:10:22.439Z,2.60
2018-12-21T19:12:49.962Z,2.30
2018-12-21T19:15:17.456Z,2.10
2018-12-21T19:17:44.986Z,1.57
2018-12-21T19:20:12.653Z,1.80
2018-12-21T19:22:40.184Z,1.77
2018-12-21T19:25:08.059Z,1.90
2018-12-21T19:27:35.592Z,1.73
2018-12-21T19:30:03.742Z,2.37
2018-12-21T19:32:31.267Z,2.57
2018-12-21T19:34:58.778Z,2.13
2018-12-21T19:37:26.311Z,2.73
2018-12-21T19:39:53.813Z,1.63
2018-12-21T19:42:21.349Z,1.20
2018-12-21T19:44:48.863Z,1.13
2018-12-21T19:47:16.390Z,1.20
2018-12-21T19:49:43.891Z,1.00
2018-12-21T19:52:11.539Z,1.13
2018-12-21T19:54:39.161Z,1.10
2018-12-21T19:57:06.692Z,1.40
2018-12-21T19:59:34.221Z,1.67
2018-12-21T20:02:01.796Z,1.40
2018-12-21T20:04:29.379Z,1.10
2018-12-21T20:06:56.908Z,1.27
2018-12-21T20:09:24.482Z,1.30
2018-12-21T20:11:52.001Z,0.93
2018-12-21T20:14:19.526Z,2.10
2018-12-21T20:16:47.038Z,1.37
2018-12-21T20:19:14.567Z,0.87
2018-12-21T20:21:42.076Z,4.30
2018-12-21T20:24:09.607Z,5.20
2018-12-21T20:26:37.181Z,2.20
2018-12-21T20:29:04.688Z,1.60
2018-12-21T20:31:32.175Z,1.50
2018-12-21T20:33:59.704Z,1.40
2018-12-21T20:36:27.218Z,0.80
2018-12-21T20:38:54.726Z,0.80
2018-12-21T20:41:22.223Z,1.02
2018-12-21T20:43:49.727Z,0.80
2018-12-21T20:46:17.239Z,1.03
2018-12-21T20:48:44.744Z,1.13
2018-12-21T20:51:12.232Z,1.50
2018-12-21T20:53:39.861Z,0.80
2018-12-21T20:56:07.357Z,0.80
2018-12-21T20:58:35.239Z,0.90
2018-12-21T21:01:02.744Z,0.80
2018-12-21T21:03:30.247Z,0.90
2018-12-21T21:05:57.764Z,0.70
2018-12-21T21:08:25.276Z,0.90
2018-12-21T21:10:52.776Z,1.00
2018-12-21T21:13:20.312Z,0.90
2018-12-21T21:15:47.817Z,1.10
2018-12-21T21:18:15.330Z,1.00
2018-12-21T21:20:42.859Z,1.00
2018-12-21T21:23:10.357Z,1.10
2018-12-21T21:25:37.860Z,1.10
2018-12-21T21:28:05.374Z,1.23
2018-12-21T21:30:33.560Z,1.20
2018-12-21T21:33:01.080Z,1.83
2018-12-21T21:35:28.615Z,1.63
2018-12-21T21:37:56.136Z,1.87
2018-12-21T21:40:23.653Z,1.43
2018-12-21T21:42:57.491Z,1.87
2018-12-21T21:45:20.736Z,1.70
2018-12-21T21:47:48.247Z,2.00
2018-12-21T21:50:15.775Z,1.80
2018-12-21T21:52:43.287Z,1.87
2018-12-21T21:55:10.793Z,1.90
2018-12-21T21:57:39.487Z,1.70
2018-12-21T22:00:10.400Z,1.80
2018-12-21T22:02:37.906Z,1.50
2018-12-21T22:05:05.527Z,1.60
2018-12-21T22:07:33.020Z,1.40
2018-12-21T22:10:00.520Z,1.43
2018-12-21T22:12:28.012Z,1.57
2018-12-21T22:14:55.515Z,1.20
2018-12-21T22:17:23.008Z,1.50
2018-12-21T22:19:50.517Z,2.00
2018-12-21T22:22:18.036Z,1.93
2018-12-21T22:24:45.571Z,1.50
2018-12-21T22:27:13.092Z,2.27
2018-12-21T22:29:40.599Z,1.77
2018-12-21T22:32:08.108Z,2.23
2018-12-21T22:34:35.628Z,2.10
2018-12-21T22:37:03.145Z,2.30
2018-12-21T22:39:30.659Z,2.58
2018-12-21T22:41:58.184Z,2.50
2018-12-21T22:44:25.693Z,2.30
2018-12-21T22:46:53.301Z,2.30
2018-12-21T22:49:20.824Z,2.27
2018-12-21T22:51:48.332Z,2.50
2018-12-21T22:54:15.828Z,2.30
2018-12-21T22:56:43.332Z,2.50
2018-12-21T22:59:10.851Z,2.63
2018-12-21T23:01:38.347Z,2.40
2018-12-21T23:04:05.864Z,2.13
2018-12-21T23:06:33.371Z,2.40
2018-12-21T23:09:00.868Z,2.33
2018-12-21T23:11:28.473Z,2.90
2018-12-21T23:13:55.996Z,2.30
2018-12-21T23:16:23.514Z,2.07
2018-12-21T23:18:51.011Z,2.40
2018-12-21T23:21:18.520Z,3.17
2018-12-21T23:23:46.031Z,2.10
2018-12-21T23:26:13.541Z,2.03
2018-12-21T23:28:41.027Z,2.30
2018-12-21T23:31:08.544Z,2.50
2018-12-21T23:44:09.535Z,3.03
2018-12-21T23:46:37.064Z,3.20
2018-12-21T23:49:04.603Z,3.33
2018-12-21T23:51:32.123Z,2.67
2018-12-21T23:53:59.679Z,2.70
2018-12-21T23:56:27.218Z,3.17
2018-12-21T23:58:54.753Z,2.53
